Time;durP1;ratioP1;P1;durP2;ratioP2;P2;SDS_P1;SDS_P2;PMS_P1;PMS_P2;Temp;Humidity;BMP_temperature;BMP_pressure;BME280_temperature;BME280_humidity;BME280_pressure;Samples;Min_cycle;Max_cycle;Signal;HPM_P1;HPM_P2
2021/03/26 00:02:15;;;;;;;;;125.00;92.75;;;;;-0.47;80.80;100345.00;5073020;28;8825;-57
2021/03/26 00:04:43;;;;;;;;;116.25;86.75;;;;;-0.54;80.79;100355.59;5065265;28;9276;-57
2021/03/26 00:07:10;;;;;;;;;123.50;92.50;;;;;-0.37;80.13;100348.47;5067045;28;8859;-58
2021/03/26 00:09:38;;;;;;;;;135.50;94.00;;;;;-0.34;79.22;100351.09;5063824;28;8825;-57
2021/03/26 00:12:12;;;;;;;;;115.25;81.00;;;;;-0.75;81.20;100351.31;5062605;28;9793;-57
2021/03/26 00:14:39;;;;;;;;;130.75;99.50;;;;;-0.58;81.41;100353.84;5071094;28;8813;-58
2021/03/26 00:17:06;;;;;;;;;133.25;97.50;;;;;-0.33;81.44;100354.59;5068368;28;8875;-57
2021/03/26 00:19:34;;;;;;;;;141.25;101.00;;;;;-0.36;80.23;100349.34;5064353;28;8864;-57
2021/03/26 00:22:01;;;;;;;;;115.00;82.00;;;;;-0.64;81.32;100353.88;5068416;28;8874;-57
2021/03/26 00:24:27;;;;;;;;;119.25;88.00;;;;;-0.74;81.51;100359.22;5063479;28;9000;-57
2021/03/26 00:26:54;;;;;;;;;115.00;81.75;;;;;-0.76;82.24;100357.47;5063303;28;8834;-58
2021/03/26 00:29:21;;;;;;;;;114.75;80.75;;;;;-1.00;81.43;100361.06;5064204;28;8852;-57
2021/03/26 00:31:50;;;;;;;;;111.75;75.75;;;;;-0.53;80.45;100358.19;5063131;28;8857;-58
2021/03/26 00:34:18;;;;;;;;;108.25;76.25;;;;;-0.90;82.06;100353.09;5063054;28;8954;-57
2021/03/26 00:36:47;;;;;;;;;103.50;75.00;;;;;-1.06;81.95;100350.56;5064683;28;8848;-58
2021/03/26 00:39:14;;;;;;;;;104.00;76.00;;;;;-0.88;82.09;100353.13;5067044;28;8863;-57
2021/03/26 00:41:40;;;;;;;;;111.25;78.00;;;;;-0.75;80.81;100356.56;5063281;28;8844;-58
2021/03/26 00:44:07;;;;;;;;;111.25;78.25;;;;;-0.95;81.93;100354.00;5065830;28;8871;-57
2021/03/26 00:46:42;;;;;;;;;96.75;69.25;;;;;-1.01;82.91;100348.78;5062230;28;8833;-57
2021/03/26 00:49:10;;;;;;;;;104.00;74.00;;;;;-0.72;81.76;100346.88;5065174;28;8820;-57
2021/03/26 00:51:38;;;;;;;;;92.75;66.25;;;;;-0.85;82.08;100353.09;5066771;28;8830;-58
2021/03/26 00:54:06;;;;;;;;;92.00;67.75;;;;;-0.89;82.99;100348.75;5064813;28;8829;-57
2021/03/26 00:56:34;;;;;;;;;103.50;72.25;;;;;-0.40;81.15;100353.72;5069552;28;8857;-57
2021/03/26 00:59:01;;;;;;;;;92.50;63.25;;;;;-0.89;82.48;100354.88;5065320;28;8846;-56
2021/03/26 01:01:28;;;;;;;;;95.00;67.00;;;;;-0.85;82.89;100360.13;5073071;28;8829;-57
2021/03/26 01:03:55;;;;;;;;;91.75;67.00;;;;;-0.42;80.92;100347.63;5082933;28;8820;-56
2021/03/26 01:06:22;;;;;;;;;89.50;65.75;;;;;-0.56;80.33;100352.09;5062890;28;8841;-57
2021/03/26 01:08:49;;;;;;;;;90.00;64.50;;;;;-0.64;81.59;100344.22;5064958;28;8846;-57
2021/03/26 01:11:24;;;;;;;;;89.50;63.25;;;;;-0.94;82.29;100342.63;5063955;28;8833;-56
2021/03/26 01:13:52;;;;;;;;;93.50;66.75;;;;;-1.05;83.24;100347.03;5068608;28;8932;-56
2021/03/26 01:16:20;;;;;;;;;92.00;63.50;;;;;-0.94;83.67;100339.97;5060752;28;8855;-57
2021/03/26 01:18:49;;;;;;;;;96.25;69.00;;;;;-0.62;83.03;100341.56;5061591;28;8842;-57
2021/03/26 01:21:24;;;;;;;;;91.25;65.00;;;;;-0.76;82.20;100339.88;5068875;28;8833;-57
2021/03/26 01:23:52;;;;;;;;;95.00;64.25;;;;;-1.18;82.97;100333.91;5060241;28;8846;-57
2021/03/26 01:26:19;;;;;;;;;90.00;66.50;;;;;-1.28;83.87;100340.09;5068877;28;8840;-57
2021/03/26 01:28:47;;;;;;;;;92.50;64.50;;;;;-0.96;81.76;100331.19;5073102;28;8838;-57
2021/03/26 01:31:14;;;;;;;;;93.25;66.00;;;;;-1.01;81.96;100339.09;5067596;28;8866;-57
2021/03/26 01:33:41;;;;;;;;;92.50;66.25;;;;;-1.39;81.79;100342.75;5071865;28;8829;-57
2021/03/26 01:36:09;;;;;;;;;88.50;67.00;;;;;-1.67;83.74;100349.81;5068637;28;8914;-56
2021/03/26 01:38:36;;;;;;;;;95.75;64.50;;;;;-1.84;84.30;100349.84;5059863;28;8856;-57
2021/03/26 01:41:09;;;;;;;;;84.50;57.25;;;;;-1.75;83.61;100351.59;5065774;28;8848;-58
2021/03/26 01:43:39;;;;;;;;;88.25;64.00;;;;;-1.57;82.83;100353.31;5061241;28;8853;-57
2021/03/26 01:46:12;;;;;;;;;78.50;57.25;;;;;-1.99;84.05;100350.72;5064757;28;8825;-57
2021/03/26 01:48:46;;;;;;;;;84.75;66.00;;;;;-2.13;84.16;100344.59;5064703;28;8887;-58
2021/03/26 01:51:29;;;;;;;;;99.50;66.00;;;;;-2.38;84.84;100343.66;5064250;28;8889;-56
2021/03/26 01:53:58;;;;;;;;;89.25;60.50;;;;;-2.11;84.19;100355.97;5057370;28;8821;-57
2021/03/26 01:56:29;;;;;;;;;87.00;64.00;;;;;-2.49;84.91;100348.03;5066210;28;8915;-58
2021/03/26 01:58:56;;;;;;;;;88.75;65.75;;;;;-1.84;83.79;100348.97;5067360;28;8850;-56
2021/03/26 02:01:35;;;;;;;;;82.00;63.00;;;;;-1.64;82.66;100352.44;5060821;28;8826;-56
2021/03/26 02:04:07;;;;;;;;;88.75;63.50;;;;;-1.72;82.33;100343.69;5060508;28;8927;-57
2021/03/26 02:06:42;;;;;;;;;86.75;58.50;;;;;-1.03;80.29;100346.13;5061206;28;8952;-57
2021/03/26 02:09:15;;;;;;;;;82.50;60.75;;;;;-1.87;82.68;100344.59;5091158;28;8836;-57
2021/03/26 02:12:14;;;;;;;;;84.50;58.50;;;;;-1.97;83.35;100342.84;5061738;28;8852;-57
2021/03/26 02:14:48;;;;;;;;;88.75;61.00;;;;;-1.96;83.13;100351.59;5063417;28;8830;-57
2021/03/26 02:17:22;;;;;;;;;78.50;55.75;;;;;-2.01;84.14;100347.19;5063019;28;8881;-57
2021/03/26 02:19:57;;;;;;;;;74.25;55.50;;;;;-2.10;84.54;100357.72;5063749;28;8841;-57
2021/03/26 02:22:29;;;;;;;;;79.00;58.50;;;;;-1.94;84.02;100349.84;5064245;28;8845;-57
2021/03/26 02:24:59;;;;;;;;;72.00;51.00;;;;;-2.04;83.32;100347.19;5056267;28;9719;-55
2021/03/26 02:27:35;;;;;;;;;66.00;45.00;;;;;-2.19;84.29;100356.84;5071815;28;8857;-58
2021/03/26 02:30:26;;;;;;;;;42.75;18.25;;;;;-1.74;81.99;100353.31;5064005;28;8869;-57
2021/03/26 02:32:54;;;;;;;;;77.00;55.25;;;;;-1.97;82.14;100361.25;5062355;28;8844;-58
2021/03/26 02:35:37;;;;;;;;;70.75;47.50;;;;;-2.19;83.63;100357.72;5064863;28;8865;-57
2021/03/26 02:38:31;;;;;;;;;80.75;53.50;;;;;-1.85;83.35;100360.34;5061837;28;8873;-57
2021/03/26 02:41:08;;;;;;;;;80.75;60.00;;;;;-1.63;83.05;100359.47;5070072;28;8860;-57
2021/03/26 02:44:21;;;;;;;;;84.50;59.00;;;;;-1.70;82.79;100363.00;5061349;28;8866;-56
2021/03/26 02:47:21;;;;;;;;;78.50;59.50;;;;;-1.68;84.14;100366.50;5061206;28;8841;-57
2021/03/26 02:50:11;;;;;;;;;81.00;58.50;;;;;-1.59;83.66;100357.72;5067449;28;8872;-57
2021/03/26 02:52:59;;;;;;;;;75.25;50.00;;;;;-1.88;83.61;100363.00;5060808;28;8895;-57
2021/03/26 02:55:50;;;;;;;;;94.25;62.50;;;;;-1.96;84.73;100354.22;5064804;28;8855;-57
2021/03/26 02:58:27;;;;;;;;;86.00;61.00;;;;;-2.00;85.04;100358.63;5057201;28;8849;-57
2021/03/26 03:01:35;;;;;;;;;82.00;59.00;;;;;-1.82;84.28;100366.53;5070155;28;8833;-58
2021/03/26 03:04:15;;;;;;;;;87.00;60.00;;;;;-1.95;85.06;100369.13;5062033;28;8848;-57
2021/03/26 03:07:05;;;;;;;;;87.25;62.25;;;;;-1.78;84.36;100377.91;5060687;28;8828;-57
2021/03/26 03:09:37;;;;;;;;;94.00;67.25;;;;;-1.80;83.78;100380.53;5069443;28;8816;-57
2021/03/26 03:12:40;;;;;;;;;91.75;65.75;;;;;-2.37;84.62;100381.34;5069267;28;8818;-56
2021/03/26 03:15:29;;;;;;;;;90.00;64.50;;;;;-1.84;85.02;100386.69;5066899;28;8829;-58
2021/03/26 03:18:02;;;;;;;;;78.50;56.75;;;;;-1.74;84.74;100387.53;5075897;28;8837;-57
2021/03/26 03:20:46;;;;;;;;;82.50;58.50;;;;;-1.69;83.52;100380.53;5068990;28;8864;-57
2021/03/26 03:23:28;;;;;;;;;90.50;61.75;;;;;-1.51;83.80;100384.03;5064088;28;8992;-57
2021/03/26 03:26:16;;;;;;;;;79.00;60.00;;;;;-1.58;83.26;100391.03;5068503;28;8837;-57
2021/03/26 03:29:06;;;;;;;;;85.75;61.25;;;;;-2.05;85.18;100387.56;5081187;28;8852;-57
2021/03/26 03:31:55;;;;;;;;;92.50;62.75;;;;;-1.41;83.67;100391.03;5072005;28;8861;-58
2021/03/26 03:34:40;;;;;;;;;88.00;60.50;;;;;-2.19;84.64;100386.66;5071037;28;8824;-57
2021/03/26 03:37:29;;;;;;;;;90.00;64.00;;;;;-2.51;85.80;100400.59;5072685;28;9758;-58
2021/03/26 03:40:03;;;;;;;;;71.00;56.00;;;;;-2.33;84.81;100393.66;5066578;28;9554;-57
2021/03/26 03:42:57;;;;;;;;;71.75;52.75;;;;;-2.40;85.57;100395.38;5070325;28;8859;-58
2021/03/26 03:45:38;;;;;;;;;84.25;60.50;;;;;-2.60;85.60;100387.44;5065821;28;8829;-58
2021/03/26 03:48:13;;;;;;;;;75.50;56.00;;;;;-2.59;85.56;100410.22;5064480;28;8871;-58
2021/03/26 03:50:56;;;;;;;;;83.25;54.00;;;;;-2.74;86.44;100404.91;5066631;28;8845;-58
2021/03/26 03:54:01;;;;;;;;;81.75;56.50;;;;;-2.78;86.00;100403.16;5063986;28;8808;-58
2021/03/26 03:56:41;;;;;;;;;75.25;57.50;;;;;-2.85;86.17;100404.84;5085344;28;8829;-57
2021/03/26 03:59:42;;;;;;;;;80.50;52.50;;;;;-2.74;85.65;100402.28;5060597;28;8877;-57
2021/03/26 04:02:43;;;;;;;;;80.75;54.25;;;;;-2.11;83.31;100403.31;5072963;28;8846;-58
2021/03/26 04:05:26;;;;;;;;;82.75;53.50;;;;;-2.50;84.14;100405.00;5070358;28;8833;-57
2021/03/26 04:08:16;;;;;;;;;79.75;55.00;;;;;-2.74;85.30;100399.66;5075827;28;8861;-58
2021/03/26 04:10:52;;;;;;;;;73.00;55.25;;;;;-2.68;86.16;100402.31;5036412;28;8845;-58
2021/03/26 04:13:26;;;;;;;;;73.00;54.00;;;;;-2.57;85.08;100397.09;5076592;28;8830;-58
2021/03/26 04:16:00;;;;;;;;;77.50;54.50;;;;;-2.72;86.02;100403.16;5074609;28;8844;-58
2021/03/26 04:18:36;;;;;;;;;82.25;54.25;;;;;-2.90;86.01;100403.94;5074443;28;8845;-57
2021/03/26 04:21:13;;;;;;;;;80.00;57.50;;;;;-2.83;86.46;100410.13;5074429;28;9555;-58
2021/03/26 04:24:07;;;;;;;;;74.75;51.00;;;;;-2.58;85.43;100405.84;5074587;28;8846;-58
2021/03/26 04:26:55;;;;;;;;;81.50;51.50;;;;;-2.85;84.69;100401.34;5074333;28;8825;-58
2021/03/26 04:29:26;;;;;;;;;77.25;55.00;;;;;-2.83;85.42;100399.63;5074595;28;8833;-57
2021/03/26 04:32:16;;;;;;;;;83.00;57.25;;;;;-2.84;85.88;100400.47;5074553;28;8929;-57
2021/03/26 04:34:44;;;;;;;;;75.25;56.00;;;;;-3.23;85.11;100407.31;5075186;28;8830;-57
2021/03/26 04:37:26;;;;;;;;;74.50;51.50;;;;;-2.46;84.60;100401.50;5075557;28;8927;-57
2021/03/26 04:40:26;;;;;;;;;74.00;49.00;;;;;-2.19;80.92;100405.06;5075312;28;8914;-58
2021/03/26 04:43:25;;;;;;;;;81.50;58.00;;;;;-2.11;81.61;100411.22;5075088;28;8837;-58
2021/03/26 04:46:11;;;;;;;;;77.50;60.25;;;;;-2.68;82.47;100404.94;5073634;28;8822;-57
2021/03/26 04:49:04;;;;;;;;;91.75;61.00;;;;;-2.70;84.46;100409.31;5074721;28;8841;-58
2021/03/26 04:51:46;;;;;;;;;92.00;63.00;;;;;-2.54;84.62;100419.00;5074311;28;8809;-58
2021/03/26 04:54:41;;;;;;;;;95.50;64.00;;;;;-2.61;84.81;100419.84;5074246;28;8837;-57
2021/03/26 04:57:31;;;;;;;;;92.00;66.25;;;;;-2.52;84.60;100422.53;5074386;28;8928;-58
2021/03/26 05:00:13;;;;;;;;;113.25;78.50;;;;;-2.51;84.55;100419.00;5075115;28;8830;-57
2021/03/26 05:03:18;;;;;;;;;111.50;73.75;;;;;-1.87;83.58;100422.63;5073978;28;8923;-58
2021/03/26 05:05:52;;;;;;;;;123.25;98.00;;;;;-2.26;83.94;100424.34;5074626;28;8837;-58
2021/03/26 05:08:23;;;;;;;;;149.75;96.75;;;;;-1.55;82.29;100417.41;5073245;28;8849;-58
2021/03/26 05:10:54;;;;;;;;;101.50;70.25;;;;;-1.25;79.20;100427.00;5074741;28;8914;-59
2021/03/26 05:13:49;;;;;;;;;107.00;78.00;;;;;-1.02;78.38;100426.09;5073304;28;8984;-58
2021/03/26 05:16:43;;;;;;;;;99.00;69.00;;;;;-1.13;80.63;100432.25;5057989;28;8978;-58
2021/03/26 05:19:23;;;;;;;;;93.25;61.00;;;;;-1.15;79.58;100426.13;5074662;28;8906;-58
2021/03/26 05:22:29;;;;;;;;;95.75;69.00;;;;;-1.43;80.92;100429.66;5074129;28;8838;-58
2021/03/26 05:25:10;;;;;;;;;117.50;78.25;;;;;-0.56;79.21;100425.94;5064957;28;8884;-59
2021/03/26 05:27:38;;;;;;;;;101.75;64.00;;;;;-0.33;77.74;100439.00;5071273;28;8839;-58
2021/03/26 05:30:08;;;;;;;;;101.75;69.00;;;;;-0.81;79.82;100441.84;5074483;28;8849;-58
2021/03/26 05:32:46;;;;;;;;;90.50;64.00;;;;;-0.53;80.01;100442.59;5074180;28;8854;-58
2021/03/26 05:35:41;;;;;;;;;90.00;63.75;;;;;-0.05;78.30;100453.81;5074099;28;8917;-59
2021/03/26 05:38:28;;;;;;;;;91.25;63.75;;;;;-0.09;78.66;100446.78;5072992;28;8826;-59
2021/03/26 05:41:14;;;;;;;;;87.25;66.00;;;;;0.10;77.77;100444.03;5056975;28;8852;-58
2021/03/26 05:44:13;;;;;;;;;92.50;66.25;;;;;0.09;78.32;100453.72;5073252;28;8813;-58
2021/03/26 05:47:20;;;;;;;;;93.50;67.75;;;;;0.37;77.34;100448.22;5074417;28;8829;-58
2021/03/26 05:50:09;;;;;;;;;96.75;71.50;;;;;0.02;78.93;100451.13;5074344;28;8895;-59
2021/03/26 05:53:27;;;;;;;;;97.50;74.25;;;;;0.03;79.26;100453.78;5074077;28;8829;-59
2021/03/26 05:56:22;;;;;;;;;92.50;67.00;;;;;-0.17;79.30;100456.50;5072270;28;8821;-59
2021/03/26 05:58:54;;;;;;;;;93.00;71.50;;;;;0.09;78.57;100453.72;5073670;28;8829;-58
2021/03/26 06:01:53;;;;;;;;;92.75;67.25;;;;;1.48;74.44;100459.47;5074031;28;8840;-61
2021/03/26 06:05:16;;;;;;;;;98.50;69.50;;;;;1.67;73.11;100457.47;5073643;28;8868;-59
2021/03/26 06:08:32;;;;;;;;;107.25;75.75;;;;;2.71;70.41;100459.47;5062946;28;8825;-59
2021/03/26 06:11:27;;;;;;;;;96.25;69.50;;;;;4.24;64.50;100447.53;5072308;28;8838;-59
2021/03/26 06:14:04;;;;;;;;;82.75;67.75;;;;;3.67;65.50;100459.44;5071066;28;8852;-59
2021/03/26 06:17:02;;;;;;;;;101.75;73.75;;;;;3.36;68.43;100456.50;5073779;28;8910;-60
2021/03/26 06:19:32;;;;;;;;;90.50;71.50;;;;;3.83;67.45;100460.84;5069982;28;8841;-59
2021/03/26 06:22:19;;;;;;;;;91.75;68.00;;;;;4.15;66.68;100454.81;5073058;28;8821;-59
2021/03/26 06:25:16;;;;;;;;;95.25;63.75;;;;;6.71;59.52;100457.44;5072994;28;8846;-59
2021/03/26 06:28:46;;;;;;;;;83.75;59.75;;;;;7.98;53.35;100461.81;5073179;28;8840;-59
2021/03/26 06:32:05;;;;;;;;;84.50;63.25;;;;;9.01;50.40;100462.13;5051161;28;8841;-61
2021/03/26 06:35:09;;;;;;;;;72.75;56.75;;;;;11.07;44.54;100468.59;5072936;28;8875;-59
2021/03/26 06:38:15;;;;;;;;;84.75;57.50;;;;;5.75;58.27;100471.97;5072730;28;8833;-58
2021/03/26 06:41:09;;;;;;;;;73.25;55.25;;;;;4.36;65.14;100473.84;5071309;28;9554;-59
2021/03/26 06:44:16;;;;;;;;;80.50;61.75;;;;;3.86;66.50;100483.81;5072942;28;8976;-59
2021/03/26 06:47:18;;;;;;;;;83.75;60.75;;;;;3.67;67.61;100484.19;5063482;28;8856;-58
2021/03/26 06:50:16;;;;;;;;;77.50;59.75;;;;;3.91;66.91;100476.63;5056803;28;8891;-59
2021/03/26 06:53:01;;;;;;;;;79.25;62.00;;;;;3.98;67.50;100472.94;5073056;28;8849;-58
2021/03/26 06:56:03;;;;;;;;;83.75;63.25;;;;;4.75;65.45;100477.31;5072379;28;8841;-59
2021/03/26 06:59:03;;;;;;;;;84.25;61.75;;;;;4.32;65.73;100478.38;5071815;28;8869;-59
2021/03/26 07:01:42;;;;;;;;;70.25;49.75;;;;;5.60;62.59;100485.72;5072809;28;8853;-58
2021/03/26 07:05:04;;;;;;;;;77.50;55.00;;;;;5.44;62.67;100488.81;5072574;28;9530;-59
2021/03/26 07:08:11;;;;;;;;;77.25;54.50;;;;;5.98;61.97;100503.31;5065038;28;8938;-59
2021/03/26 07:10:47;;;;;;;;;77.75;59.00;;;;;5.79;63.74;100491.38;5066147;28;8852;-59
2021/03/26 07:14:17;;;;;;;;;76.75;58.50;;;;;6.31;60.13;100498.72;5070888;28;8852;-59
2021/03/26 07:17:13;;;;;;;;;76.25;57.00;;;;;6.90;59.45;100504.84;5047024;28;9199;-59
2021/03/26 07:20:11;;;;;;;;;77.75;57.25;;;;;11.82;47.50;100505.03;5049377;28;9512;-59
2021/03/26 07:23:11;;;;;;;;;75.00;54.00;;;;;15.13;39.12;100511.19;5064707;28;8833;-59
2021/03/26 07:26:05;;;;;;;;;68.67;48.00;;;;;13.04;41.28;100506.34;5070666;28;8880;-59
2021/03/26 07:28:56;;;;;;;;;75.33;53.67;;;;;8.07;54.56;100509.59;5070859;28;8849;-60
2021/03/26 07:31:29;;;;;;;;;72.33;51.67;;;;;8.14;55.18;100511.13;5070521;28;8860;-59
2021/03/26 07:34:06;;;;;;;;;60.33;48.00;;;;;7.79;55.20;100509.75;5074619;28;8832;-59
2021/03/26 07:37:36;;;;;;;;;74.75;58.00;;;;;7.23;56.27;100511.72;5052289;28;8847;-59
2021/03/26 07:40:32;;;;;;;;;72.75;53.25;;;;;7.54;57.01;100505.31;5067739;28;8825;-59
2021/03/26 07:43:37;;;;;;;;;73.75;56.50;;;;;7.46;55.84;100512.72;5086118;28;8859;-59
2021/03/26 07:47:04;;;;;;;;;83.50;63.75;;;;;8.40;54.42;100510.16;5065992;28;8818;-59
2021/03/26 07:50:19;;;;;;;;;80.75;61.00;;;;;8.76;53.65;100512.25;5058376;28;8873;-59
2021/03/26 07:53:04;;;;;;;;;81.25;57.25;;;;;9.32;52.99;100503.66;5055438;28;8830;-59
2021/03/26 07:55:55;;;;;;;;;78.25;59.25;;;;;8.70;54.28;100509.84;5075917;28;8845;-59
2021/03/26 07:58:49;;;;;;;;;78.75;58.75;;;;;9.93;52.47;100515.28;5070349;28;8842;-59
2021/03/26 08:01:36;;;;;;;;;77.33;56.00;;;;;9.85;51.81;100519.19;5056512;28;8870;-59
2021/03/26 08:04:25;;;;;;;;;83.00;61.25;;;;;10.40;50.51;100515.78;5065918;28;8825;-59
2021/03/26 08:07:28;;;;;;;;;78.25;61.50;;;;;10.59;51.39;100520.28;5091611;28;8857;-59
2021/03/26 08:10:08;;;;;;;;;68.33;52.33;;;;;10.10;51.93;100518.06;5067869;28;8822;-58
2021/03/26 08:12:50;;;;;;;;;65.00;51.00;;;;;10.24;51.08;100525.44;5076147;28;8936;-59
2021/03/26 08:15:35;;;;;;;;;56.33;46.33;;;;;10.57;51.22;100528.41;5060107;28;8874;-58
2021/03/26 08:18:23;;;;;;;;;64.33;51.00;;;;;10.63;50.71;100517.34;5055653;28;8847;-59
2021/03/26 08:21:19;;;;;;;;;71.67;53.00;;;;;11.32;50.73;100524.69;5084928;28;8855;-59
2021/03/26 08:24:25;;;;;;;;;63.00;48.67;;;;;11.27;48.86;100531.22;5106956;28;8868;-59
2021/03/26 08:27:24;;;;;;;;;68.00;50.33;;;;;11.37;47.42;100528.00;5065580;28;8884;-59
2021/03/26 08:30:44;;;;;;;;;71.00;52.33;;;;;11.53;48.43;100522.72;5063916;28;8902;-59
2021/03/26 08:33:39;;;;;;;;;71.33;53.67;;;;;11.24;48.58;100529.56;5071527;28;8939;-59
2021/03/26 08:36:33;;;;;;;;;74.33;48.67;;;;;11.93;48.56;100523.31;5074219;28;8813;-60
2021/03/26 08:39:48;;;;;;;;;65.33;50.67;;;;;11.88;48.18;100520.00;5091679;28;8817;-59
2021/03/26 08:42:38;;;;;;;;;65.33;50.67;;;;;12.57;47.54;100520.72;5075747;28;8940;-59
2021/03/26 08:45:08;;;;;;;;;64.67;48.33;;;;;12.20;47.70;100525.47;5076040;28;8845;-59
2021/03/26 08:48:30;;;;;;;;;66.67;47.33;;;;;12.29;45.59;100530.31;5076285;28;8853;-59
2021/03/26 08:51:58;;;;;;;;;59.67;46.00;;;;;12.46;46.55;100522.19;5076383;28;8862;-59
2021/03/26 08:54:55;;;;;;;;;64.33;48.33;;;;;12.59;45.95;100522.38;5076134;28;8868;-59
2021/03/26 08:57:47;;;;;;;;;60.00;47.00;;;;;12.88;45.23;100527.94;5076544;28;8844;-59
2021/03/26 09:00:51;;;;;;;;;65.33;49.67;;;;;12.91;44.89;100523.22;5075393;28;8856;-60
2021/03/26 09:03:57;;;;;;;;;64.00;49.67;;;;;12.64;45.75;100517.59;5075619;28;9554;-58
2021/03/26 09:06:40;;;;;;;;;70.33;52.00;;;;;12.84;45.43;100521.81;5076418;28;8883;-58
2021/03/26 09:09:31;;;;;;;;;65.00;49.00;;;;;12.96;44.69;100515.72;5075292;28;8930;-59
2021/03/26 09:12:48;;;;;;;;;68.33;50.67;;;;;13.38;44.10;100516.88;5079102;28;8857;-60
2021/03/26 09:15:58;;;;;;;;;65.00;47.00;;;;;13.52;43.79;100526.84;5081400;28;8856;-59
2021/03/26 09:18:46;;;;;;;;;61.33;48.00;;;;;13.44;44.37;100514.78;5080913;28;8844;-57
2021/03/26 09:21:54;;;;;;;;;68.33;51.67;;;;;13.79;42.82;100513.47;5076245;28;8869;-59
2021/03/26 09:24:58;;;;;;;;;53.75;41.00;;;;;14.24;42.15;100522.41;5074871;28;8923;-59
2021/03/26 09:27:45;;;;;;;;;51.25;41.00;;;;;14.02;42.63;100522.00;5075624;28;11572;-60
2021/03/26 09:30:22;;;;;;;;;51.00;40.00;;;;;13.00;43.46;100521.81;5074799;28;11560;-58
2021/03/26 09:33:06;;;;;;;;;59.25;41.00;;;;;13.05;43.18;100519.72;5075467;28;11552;-58
2021/03/26 09:35:37;;;;;;;;;57.67;46.00;;;;;13.53;43.00;100523.19;5075744;28;11567;-59
2021/03/26 09:38:13;;;;;;;;;60.33;44.33;;;;;13.78;43.46;100511.75;5075453;28;11673;-58
2021/03/26 09:40:50;;;;;;;;;56.67;48.67;;;;;13.96;42.98;100522.41;5075623;28;11612;-58
2021/03/26 09:43:58;;;;;;;;;57.67;44.00;;;;;14.51;42.60;100513.50;5074898;28;8937;-58
2021/03/26 09:46:47;;;;;;;;;66.00;48.67;;;;;14.14;43.41;100521.25;5075216;28;11559;-59
2021/03/26 09:49:39;;;;;;;;;73.33;52.33;;;;;13.35;44.37;100508.97;5074342;28;11594;-59
2021/03/26 09:52:40;;;;;;;;;66.00;49.67;;;;;13.89;43.31;100515.63;5075249;28;9000;-58
2021/03/26 09:55:20;;;;;;;;;60.00;46.33;;;;;14.21;43.86;100511.75;5074210;28;8833;-58
2021/03/26 09:58:37;;;;;;;;;60.00;46.00;;;;;14.44;42.50;100509.44;5074904;28;8837;-59
2021/03/26 10:01:18;;;;;;;;;62.33;49.00;;;;;14.39;42.12;100511.56;5057924;28;11709;-58
2021/03/26 10:04:07;;;;;;;;;70.33;51.67;;;;;13.56;43.96;100504.13;5074040;28;11636;-59
2021/03/26 10:07:17;;;;;;;;;62.00;46.33;;;;;13.75;43.39;100500.28;5075241;28;8852;-59
2021/03/26 10:10:00;;;;;;;;;59.00;45.00;;;;;14.01;42.65;100509.47;5074692;28;11687;-59
2021/03/26 10:12:38;;;;;;;;;60.33;45.00;;;;;14.68;42.79;100497.06;5075062;28;8849;-59
2021/03/26 10:15:39;;;;;;;;;59.67;48.67;;;;;14.70;42.47;100497.81;5074091;28;8834;-58
2021/03/26 10:18:11;;;;;;;;;64.33;50.33;;;;;15.12;42.38;100505.91;5072821;28;8971;-59
2021/03/26 10:21:08;;;;;;;;;60.33;45.00;;;;;15.30;41.56;100510.06;5075267;28;11562;-58
2021/03/26 10:24:04;;;;;;;;;61.75;46.75;;;;;15.17;42.54;100495.63;5073384;28;11585;-59
2021/03/26 10:27:20;;;;;;;;;61.50;48.50;;;;;14.89;40.93;100500.16;5072879;28;11553;-59
2021/03/26 10:30:11;;;;;;;;;61.25;48.00;;;;;14.82;41.24;100501.53;5063170;28;11611;-59
2021/03/26 10:32:42;;;;;;;;;62.00;47.50;;;;;14.78;42.15;100488.34;5072464;28;11653;-58
2021/03/26 10:35:21;;;;;;;;;54.75;43.00;;;;;15.31;41.74;100497.38;5073154;28;11641;-59
2021/03/26 10:38:02;;;;;;;;;56.25;44.25;;;;;14.98;40.85;100493.31;5063435;28;11574;-59
2021/03/26 10:40:47;;;;;;;;;58.50;44.00;;;;;15.35;40.96;100496.22;5070906;28;11592;-59
2021/03/26 10:43:34;;;;;;;;;58.00;46.50;;;;;15.11;40.62;100491.50;5088640;28;11580;-58
2021/03/26 10:46:05;;;;;;;;;57.25;44.00;;;;;15.37;40.18;100491.56;5088806;28;12332;-59
2021/03/26 10:48:48;;;;;;;;;53.75;44.50;;;;;14.78;41.24;100482.94;5087722;28;11579;-60
2021/03/26 10:51:47;;;;;;;;;59.50;46.25;;;;;15.14;39.88;100494.00;5062207;28;11568;-60
2021/03/26 10:54:29;;;;;;;;;59.25;44.00;;;;;15.14;40.29;100494.00;5073207;28;11585;-59
2021/03/26 10:57:30;;;;;;;;;54.00;40.00;;;;;14.80;38.47;100487.28;5081263;28;11578;-59
2021/03/26 11:00:23;;;;;;;;;60.50;43.25;;;;;15.02;40.58;100483.13;5057920;28;11557;-59
2021/03/26 11:03:02;;;;;;;;;60.75;46.00;;;;;15.40;40.29;100472.38;5072362;28;11718;-59
2021/03/26 11:06:00;;;;;;;;;58.00;42.50;;;;;14.69;40.64;100470.88;5073050;28;12284;-60
2021/03/26 11:08:34;;;;;;;;;53.75;42.00;;;;;16.00;39.26;100474.50;5052408;28;11718;-59
2021/03/26 11:11:09;;;;;;;;;52.50;43.50;;;;;15.10;40.38;100475.38;5051897;28;11664;-59
2021/03/26 11:14:04;;;;;;;;;52.50;42.00;;;;;15.29;40.08;100473.13;5052764;28;11675;-59
2021/03/26 11:17:00;;;;;;;;;61.75;45.00;;;;;15.57;41.43;100466.69;5067860;28;11583;-59
2021/03/26 11:19:34;;;;;;;;;57.25;44.50;;;;;15.32;39.60;100466.66;5069151;28;11605;-60
2021/03/26 11:22:22;;;;;;;;;58.25;45.25;;;;;15.23;39.53;100470.00;5071635;28;11546;-59
2021/03/26 11:25:11;;;;;;;;;57.75;42.75;;;;;15.81;39.00;100460.56;5071778;28;11679;-59
2021/03/26 11:27:49;;;;;;;;;58.00;43.50;;;;;15.35;39.57;100461.03;5073959;28;11546;-60
2021/03/26 11:30:41;;;;;;;;;51.00;40.50;;;;;15.54;39.22;100455.22;5074719;28;11681;-59
2021/03/26 11:33:55;;;;;;;;;55.75;43.50;;;;;15.73;38.94;100449.41;5075647;28;11557;-59
2021/03/26 11:36:40;;;;;;;;;58.25;45.00;;;;;15.51;39.29;100450.03;5036199;28;11598;-59
2021/03/26 11:39:55;;;;;;;;;53.25;40.75;;;;;15.72;39.56;100443.13;5074759;28;11611;-59
2021/03/26 11:42:42;;;;;;;;;55.75;43.00;;;;;15.66;39.40;100437.22;5075383;28;11526;-60
2021/03/26 11:45:20;;;;;;;;;66.75;47.75;;;;;15.11;39.38;100436.53;5076132;28;11563;-59
2021/03/26 11:48:21;;;;;;;;;50.50;42.00;;;;;15.46;39.43;100431.38;5076034;28;11582;-59
2021/03/26 11:50:54;;;;;;;;;54.75;42.25;;;;;15.90;38.56;100429.22;5068997;28;11568;-59
2021/03/26 11:53:37;;;;;;;;;53.25;41.00;;;;;15.58;38.17;100427.81;5092079;28;11555;-60
2021/03/26 11:56:30;;;;;;;;;54.75;42.00;;;;;15.58;38.96;100425.09;5070200;28;11606;-60
2021/03/26 11:59:58;;;;;;;;;54.50;43.25;;;;;14.97;38.42;100423.94;5062498;28;11551;-59
2021/03/26 12:02:24;;;;;;;;;55.75;41.75;;;;;15.59;38.80;100423.28;5027264;28;11613;-59
2021/03/26 12:05:24;;;;;;;;;58.25;44.25;;;;;14.96;38.65;100422.22;5070488;28;11531;-61
2021/03/26 12:08:22;;;;;;;;;54.75;42.75;;;;;15.85;39.24;100423.28;5074711;28;11561;-60
2021/03/26 12:11:20;;;;;;;;;53.00;42.25;;;;;16.36;37.78;100415.06;5074370;28;11717;-59
2021/03/26 12:14:29;;;;;;;;;55.00;42.75;;;;;15.89;38.04;100406.69;5071169;28;11679;-59
2021/03/26 12:17:26;;;;;;;;;53.50;41.50;;;;;15.78;37.71;100403.91;5074396;28;11556;-60
2021/03/26 12:20:25;;;;;;;;;54.25;41.25;;;;;16.19;38.13;100392.78;5066326;28;11589;-59
2021/03/26 12:22:54;;;;;;;;;60.00;45.25;;;;;15.56;38.75;100399.09;5075387;28;11627;-59
2021/03/26 12:25:35;;;;;;;;;58.75;43.25;;;;;16.12;38.72;100396.91;5075098;28;11562;-59
2021/03/26 12:28:33;;;;;;;;;54.75;41.25;;;;;15.80;38.91;100399.25;5074890;28;11584;-59
2021/03/26 12:31:17;;;;;;;;;62.50;45.50;;;;;16.06;38.79;100396.47;5070606;28;11656;-60
2021/03/26 12:33:56;;;;;;;;;61.00;45.00;;;;;15.84;38.60;100398.03;5066143;28;11553;-60
2021/03/26 12:36:35;;;;;;;;;55.00;42.25;;;;;15.88;38.70;100388.72;5074429;28;11582;-60
2021/03/26 12:39:35;;;;;;;;;54.75;43.00;;;;;15.73;38.97;100385.28;5073602;28;11585;-60
2021/03/26 12:42:12;;;;;;;;;54.00;42.75;;;;;15.41;37.49;100384.84;5075054;28;12366;-58
2021/03/26 12:45:06;;;;;;;;;52.00;42.50;;;;;15.70;37.97;100374.69;5075333;28;11573;-60
2021/03/26 12:47:44;;;;;;;;;58.25;44.50;;;;;15.69;39.17;100372.97;5073715;28;11567;-60